Richland, WA

2:41 AM PDT on October 20, 2014 (GMT -0700)
Cottonwood | Change Station
CLOSE
Current Station
Personal Weather Station
Location: Richland, WA
Elevation: 407 ft
Nearby Weather Stations

Elev 407 ft 46.29 °N, 119.31 °W | Updated 7 seconds ago

Clear
Clear
48.2 °F
Feels Like 48 °F
N
0.0
Wind Variable Wind from South
Gusts 0.0 mph

Today
High -- | Low -- °F
--% Chance of Precip.
Yesterday
High -- | Low -- °F
Precip. -- in
7:21 AM 6:01 PM
Waning Crescent, 12% visible
Pressure 29.71 in
Visibility 10.0 miles
Clouds Clear
Windchill 48 °F
Dew Point 47 °F
Humidity 96%
Rainfall 0.00 in
Snow Depth Not available.
UV 0 out of 12
Pollen 2.60 out of 12
Air Quality Not available.
Flu Activity Sporadic
METAR KPSC 200853Z AUTO 08003KT 10SM CLR 07/07 A2971 RMK AO2 SLP059 T00720072 55003

More Conditions Fewer Conditions

Pressure 29.71 in
Visibility 10.0 miles
Clouds Clear
Windchill 48 °F
Dew Point 47 °F
Humidity 96%
Rainfall 0.00 in
Snow Depth Not available.
UV 0 out of 12
Pollen 2.60 out of 12
Air Quality Not available.
Flu Activity Sporadic
METAR KPSC 200853Z AUTO 08003KT 10SM CLR 07/07 A2971 RMK AO2 SLP059 T00720072 55003

More Conditions Fewer Conditions

10-Day Weather Forecast

Almanac

Astronomy

Oct. 20, 2014 Rise Set
Actual Time 7:21 AM PDT 6:01 PM PDT
Civil Twilight 6:50 AM PDT 6:32 PM PDT
Nautical Twilight 6:15 AM PDT 7:07 PM PDT
Astronomical Twilight 5:41 AM PDT 7:41 PM PDT
Moon 4:04 AM PDT 4:35 PM PDT
Length of Visible Light 11h 41m
Length of Day
10h 40m
Waning Crescent, 12% of the Moon is Illuminated
Today
Waning Crescent
Oct 23
New
Oct 30
First Quarter
Nov 6
Full
Nov 14
Last Quarter

Today's Extremes

State Highs State Lows

Community

WunderPhotos

Upload Photos

1,763,325 photos uploaded!

Nearby

Snow Depth

Station Depth Elevation
Touchet 0 in 5530 ft
Trough 0 in 5300 ft
Spruce Springs 1 in 5700 ft
Lost Horse 0 in 5000 ft
Grouse Camp 0 in 5380 ft

Earthquake Activity

City Distance Mag. Time & Date
No recent earthquake activity has been reported nearby.
Minimum magnitude displayed is 2.5.

Coastal Water Temperatures

Place Temperature
No Stations Reporting

Nearby Weather Stations